Time;durP1;ratioP1;P1;durP2;ratioP2;P2;SDS_P1;SDS_P2;PMS_P1;PMS_P2;Temp;Humidity;BMP_temperature;BMP_pressure;BME280_temperature;BME280_humidity;BME280_pressure;Samples;Min_cycle;Max_cycle;Signal;HPM_P1;HPM_P2
2022/01/13 00:00:28;;;;;;;59.60;46.23;;;;;21.00;102924.00;;;;2087979;28;20205;-66
2022/01/13 00:01:36;;;;;;;55.17;43.43;;;;;21.00;102922.00;;;;2088683;28;20454;-66
2022/01/13 00:02:37;;;;;;;55.08;43.95;;;;;20.90;102924.00;;;;2088920;28;20295;-66
2022/01/13 00:03:37;;;;;;;53.37;43.00;;;;;20.90;102933.00;;;;2088767;28;20209;-66
2022/01/13 00:04:38;;;;;;;53.23;42.20;;;;;20.90;102930.00;;;;2088757;28;20482;-66
2022/01/13 00:05:38;;;;;;;52.50;41.53;;;;;20.90;102927.00;;;;2088722;28;20213;-66
2022/01/13 00:06:39;;;;;;;52.60;41.17;;;;;20.90;102923.00;;;;2088603;28;20225;-66
2022/01/13 00:07:39;;;;;;;53.40;41.70;;;;;20.90;102924.00;;;;2088711;28;20656;-66
2022/01/13 00:08:40;;;;;;;48.87;38.67;;;;;20.90;102925.00;;;;2088789;28;20213;-66
2022/01/13 00:09:40;;;;;;;52.27;40.30;;;;;20.90;102933.00;;;;2088461;28;20213;-66
2022/01/13 00:10:40;;;;;;;48.43;37.90;;;;;20.90;102904.00;;;;2088502;28;20768;-66
2022/01/13 00:11:42;;;;;;;49.00;38.23;;;;;20.90;102923.00;;;;2088551;28;20285;-66
2022/01/13 00:12:43;;;;;;;48.90;38.30;;;;;20.90;102926.00;;;;2088734;28;20271;-66
2022/01/13 00:13:51;;;;;;;42.88;35.55;;;;;20.90;102920.00;;;;2085012;28;20236;-66
2022/01/13 00:18:40;;;;;;;45.90;34.53;;;;;20.90;102916.00;;;;2088622;28;20204;-66
2022/01/13 00:22:03;;;;;;;43.45;34.25;;;;;20.80;102932.00;;;;2084757;28;20236;-66
2022/01/13 00:24:22;;;;;;;42.50;33.42;;;;;20.80;102934.00;;;;2084690;28;20613;-66
2022/01/13 00:25:24;;;;;;;42.77;31.90;;;;;20.80;102930.00;;;;2088148;28;20213;-66
2022/01/13 00:26:26;;;;;;;42.58;32.33;;;;;20.80;102926.00;;;;2088224;28;20213;-66
2022/01/13 00:27:29;;;;;;;36.78;30.48;;;;;20.80;102938.00;;;;2086840;28;20303;-66
2022/01/13 00:28:29;;;;;;;36.70;30.45;;;;;20.80;102936.00;;;;2088615;28;20239;-66
2022/01/13 00:29:31;;;;;;;38.73;30.90;;;;;20.80;102942.00;;;;2082045;28;20318;-66
2022/01/13 00:30:31;;;;;;;38.15;29.83;;;;;20.80;102940.00;;;;2087895;28;20217;-66
2022/01/13 00:31:34;;;;;;;38.10;30.60;;;;;20.80;102940.00;;;;2088306;28;20217;-67
2022/01/13 00:32:34;;;;;;;34.33;29.48;;;;;20.80;102944.00;;;;2087653;28;20560;-66
2022/01/13 00:33:35;;;;;;;36.07;28.67;;;;;20.80;102935.00;;;;2087794;28;20223;-66
2022/01/13 00:34:35;;;;;;;35.17;29.93;;;;;20.80;102935.00;;;;2082654;28;20241;-66
2022/01/13 00:35:36;;;;;;;37.70;28.67;;;;;20.70;102944.00;;;;2087342;28;20221;-66
2022/01/13 00:36:37;;;;;;;36.60;28.87;;;;;20.70;102942.00;;;;2087430;28;20217;-66
2022/01/13 00:37:38;;;;;;;37.13;29.13;;;;;20.70;102940.00;;;;2084005;28;20220;-66
2022/01/13 00:38:38;;;;;;;36.13;28.33;;;;;20.70;102942.00;;;;2087693;28;20304;-66
2022/01/13 00:39:39;;;;;;;32.00;27.03;;;;;20.70;102931.00;;;;2087214;28;20227;-66
2022/01/13 00:40:39;;;;;;;35.50;28.00;;;;;20.70;102931.00;;;;2087773;28;20331;-66
2022/01/13 00:41:40;;;;;;;34.47;27.73;;;;;20.70;102933.00;;;;2084014;28;20205;-66
2022/01/13 00:42:40;;;;;;;33.80;26.80;;;;;20.70;102928.00;;;;2088059;28;20216;-66
2022/01/13 00:43:42;;;;;;;33.90;27.70;;;;;20.70;102924.00;;;;2088076;28;20216;-66
2022/01/13 00:44:43;;;;;;;36.13;27.65;;;;;20.70;102914.00;;;;2088008;28;20227;-66
2022/01/13 00:45:46;;;;;;;35.05;27.60;;;;;20.70;102934.00;;;;2084874;28;20288;-66
2022/01/13 00:46:49;;;;;;;31.75;26.42;;;;;20.70;102928.00;;;;2087594;28;20248;-66
2022/01/13 00:47:49;;;;;;;31.38;26.83;;;;;20.70;102937.00;;;;2087704;28;20589;-66
2022/01/13 00:48:51;;;;;;;29.97;26.03;;;;;20.70;102935.00;;;;2087441;28;20219;-66
2022/01/13 00:49:51;;;;;;;34.22;25.38;;;;;20.70;102944.00;;;;2087383;28;20221;-66
2022/01/13 00:50:52;;;;;;;31.63;25.93;;;;;20.70;102950.00;;;;2088101;28;20281;-66
2022/01/13 00:51:52;;;;;;;37.67;28.00;;;;;20.70;102943.00;;;;2088440;28;20219;-66
2022/01/13 00:52:52;;;;;;;36.70;27.03;;;;;20.70;102952.00;;;;2088339;28;20719;-66
2022/01/13 00:53:54;;;;;;;30.67;25.03;;;;;20.70;102951.00;;;;2085436;28;20213;-66
2022/01/13 00:54:56;;;;;;;31.58;26.00;;;;;20.70;102937.00;;;;2088137;28;20220;-66
2022/01/13 00:55:59;;;;;;;31.98;25.40;;;;;20.70;102937.00;;;;2088165;28;20251;-66
2022/01/13 00:56:59;;;;;;;33.05;25.25;;;;;20.60;102945.00;;;;2084597;28;20228;-66
2022/01/13 00:58:00;;;;;;;32.73;25.27;;;;;20.60;102945.00;;;;2088356;28;20216;-66
2022/01/13 00:59:03;;;;;;;31.10;24.50;;;;;20.60;102945.00;;;;2085580;28;20580;-66
2022/01/13 01:00:04;;;;;;;32.03;25.05;;;;;20.70;102936.00;;;;2088188;28;20303;-66
2022/01/13 01:01:05;;;;;;;30.70;24.13;;;;;20.60;102934.00;;;;2087981;28;20680;-66
2022/01/13 01:02:05;;;;;;;28.77;24.67;;;;;20.60;102944.00;;;;2088179;28;20494;-66
2022/01/13 01:03:07;;;;;;;29.33;24.50;;;;;20.60;102943.00;;;;2088291;28;20205;-66
2022/01/13 01:04:08;;;;;;;30.38;24.92;;;;;20.60;102946.00;;;;2085809;28;20229;-66
2022/01/13 01:05:08;;;;;;;29.00;23.47;;;;;20.60;102944.00;;;;2088251;28;20737;-66
2022/01/13 01:06:09;;;;;;;30.20;24.70;;;;;20.60;102950.00;;;;2088257;28;20224;-66
2022/01/13 01:07:09;;;;;;;30.07;24.17;;;;;20.60;102936.00;;;;2087824;28;20300;-67
2022/01/13 01:08:10;;;;;;;28.30;23.30;;;;;20.60;102947.00;;;;2088341;28;20236;-67
2022/01/13 01:09:14;;;;;;;29.40;23.73;;;;;20.60;102945.00;;;;2085188;28;20231;-67
2022/01/13 01:10:14;;;;;;;31.00;24.35;;;;;20.60;102911.00;;;;2087111;28;20282;-66
2022/01/13 01:11:15;;;;;;;30.50;24.50;;;;;20.60;102946.00;;;;2086996;28;20243;-66
2022/01/13 01:12:16;;;;;;;30.63;24.10;;;;;20.60;102947.00;;;;2087485;28;20263;-66
2022/01/13 01:13:20;;;;;;;29.33;23.60;;;;;20.60;102939.00;;;;2086966;28;20326;-66
2022/01/13 01:14:21;;;;;;;27.35;22.90;;;;;20.60;102937.00;;;;2083519;28;20670;-66
2022/01/13 01:15:21;;;;;;;29.13;24.10;;;;;20.60;102943.00;;;;2087046;28;20262;-66
2022/01/13 01:16:22;;;;;;;32.90;24.00;;;;;20.60;102943.00;;;;2086859;28;20208;-66
2022/01/13 01:17:22;;;;;;;27.40;21.80;;;;;20.60;102942.00;;;;2086814;28;20220;-66
2022/01/13 01:19:29;;;;;;;29.15;23.13;;;;;20.60;102947.00;;;;2085520;28;20220;-66
2022/01/13 01:20:35;;;;;;;26.85;21.35;;;;;20.50;102949.00;;;;2087415;28;20209;-67
2022/01/13 01:22:14;;;;;;;27.52;22.80;;;;;20.50;102947.00;;;;2087181;28;20205;-66
2022/01/13 01:23:04;;;;;;;27.13;22.23;;;;;20.50;102946.00;;;;2082229;28;20731;-65
2022/01/13 01:24:28;;;;;;;27.40;22.42;;;;;20.60;102942.00;;;;2084623;28;20216;-66
2022/01/13 01:27:44;;;;;;;26.10;21.20;;;;;20.50;102938.00;;;;2087536;28;20248;-66
2022/01/13 01:28:49;;;;;;;25.73;21.45;;;;;20.50;102942.00;;;;2087542;28;20273;-66
2022/01/13 01:30:01;;;;;;;29.05;22.45;;;;;20.50;102942.00;;;;2087139;28;20244;-66
2022/01/13 01:31:01;;;;;;;27.25;21.42;;;;;20.50;102934.00;;;;2087389;28;20209;-66
2022/01/13 01:32:08;;;;;;;25.97;22.40;;;;;20.50;102933.00;;;;2086818;28;20224;-66
2022/01/13 01:33:13;;;;;;;25.23;21.27;;;;;20.50;102937.00;;;;2087147;28;20216;-66
2022/01/13 01:35:29;;;;;;;25.92;21.10;;;;;20.50;102940.00;;;;2085580;28;20219;-66
2022/01/13 01:36:31;;;;;;;23.53;20.03;;;;;20.50;102933.00;;;;2086856;28;20217;-66
2022/01/13 01:37:32;;;;;;;27.05;22.30;;;;;20.50;102937.00;;;;2083644;28;20269;-66
2022/01/13 01:38:34;;;;;;;25.55;21.30;;;;;20.50;102951.00;;;;2087846;28;20216;-66
2022/01/13 01:39:34;;;;;;;26.95;20.92;;;;;20.50;102949.00;;;;2087896;28;20216;-66
2022/01/13 01:40:35;;;;;;;25.47;21.63;;;;;20.50;102951.00;;;;2087699;28;20779;-66
2022/01/13 01:41:37;;;;;;;27.37;20.83;;;;;20.50;102957.00;;;;2088098;28;20668;-66
2022/01/13 01:42:37;;;;;;;24.20;21.00;;;;;20.50;102944.00;;;;2087903;28;20747;-66
2022/01/13 01:43:38;;;;;;;25.00;20.53;;;;;20.50;102951.00;;;;2087864;28;20223;-66
2022/01/13 01:44:42;;;;;;;24.97;20.47;;;;;20.50;102949.00;;;;2087854;28;20213;-66
2022/01/13 01:45:48;;;;;;;23.52;20.05;;;;;20.50;102958.00;;;;2087860;28;20248;-66
2022/01/13 01:46:48;;;;;;;26.88;21.58;;;;;20.40;102951.00;;;;2087745;28;20221;-66
2022/01/13 01:47:51;;;;;;;28.90;21.63;;;;;20.40;102954.00;;;;2087970;28;20586;-66
2022/01/13 01:48:52;;;;;;;26.45;20.25;;;;;20.50;102955.00;;;;2087979;28;20673;-66
2022/01/13 01:49:56;;;;;;;26.37;21.50;;;;;20.40;102957.00;;;;2087876;28;20213;-66
2022/01/13 01:50:58;;;;;;;26.42;21.20;;;;;20.50;102952.00;;;;2087660;28;20833;-66
2022/01/13 01:52:00;;;;;;;24.17;20.33;;;;;20.40;102952.00;;;;2087589;28;20262;-66
2022/01/13 01:53:00;;;;;;;25.85;20.42;;;;;20.40;102958.00;;;;2087142;28;20208;-66
2022/01/13 01:54:00;;;;;;;26.30;20.80;;;;;20.40;102957.00;;;;2087160;28;20201;-66
2022/01/13 01:55:01;;;;;;;25.50;20.50;;;;;20.40;102958.00;;;;2086530;28;20215;-66
2022/01/13 01:56:01;;;;;;;24.67;20.60;;;;;20.40;102960.00;;;;2087886;28;20209;-66
2022/01/13 01:57:02;;;;;;;26.40;20.87;;;;;20.40;102960.00;;;;2087617;28;20217;-66
2022/01/13 01:58:02;;;;;;;25.10;20.20;;;;;20.30;102960.00;;;;2087966;28;20284;-66
2022/01/13 01:59:05;;;;;;;23.03;18.80;;;;;20.20;102971.00;;;;2078987;28;20252;-66
2022/01/13 02:00:08;;;;;;;24.73;18.60;;;;;20.10;102955.00;;;;2079390;28;20457;-67
2022/01/13 02:01:09;;;;;;;26.58;20.40;;;;;20.10;102956.00;;;;2078616;28;20216;-66
2022/01/13 02:02:11;;;;;;;23.00;18.10;;;;;20.20;102956.00;;;;2079218;28;20216;-67
2022/01/13 02:03:12;;;;;;;25.10;20.35;;;;;20.30;102959.00;;;;2083656;28;20216;-65
2022/01/13 02:04:12;;;;;;;24.97;19.90;;;;;20.40;102959.00;;;;2082710;28;20590;-66
2022/01/13 02:05:12;;;;;;;28.43;21.57;;;;;20.40;102943.00;;;;2085931;28;20207;-65
2022/01/13 02:06:13;;;;;;;24.73;21.30;;;;;20.40;102968.00;;;;2088078;28;20209;-65
2022/01/13 02:07:14;;;;;;;29.13;21.73;;;;;20.40;102955.00;;;;2093016;28;20215;-65
2022/01/13 02:08:14;;;;;;;23.92;19.15;;;;;20.40;102964.00;;;;2080009;28;20351;-65
2022/01/13 02:09:16;;;;;;;24.53;19.30;;;;;20.30;102967.00;;;;2078127;28;20249;-65
2022/01/13 02:10:17;;;;;;;24.48;18.25;;;;;20.30;102963.00;;;;2087662;28;20295;-65
2022/01/13 02:11:17;;;;;;;23.27;19.07;;;;;20.30;102971.00;;;;2086980;28;20217;-65
2022/01/13 02:12:30;;;;;;;23.40;18.20;;;;;20.20;102965.00;;;;2087157;28;20510;-66
2022/01/13 02:13:34;;;;;;;24.10;18.90;;;;;20.20;102967.00;;;;2087393;28;20213;-65
2022/01/13 02:14:46;;;;;;;22.02;17.80;;;;;20.30;102969.00;;;;2062623;28;20238;-65
2022/01/13 02:15:59;;;;;;;22.65;18.17;;;;;20.30;102964.00;;;;2070448;28;20210;-65
2022/01/13 02:17:10;;;;;;;24.23;17.58;;;;;20.30;102963.00;;;;2077386;28;20213;-65
2022/01/13 02:18:10;;;;;;;24.80;19.02;;;;;20.20;102968.00;;;;2080251;28;20244;-65
2022/01/13 02:19:11;;;;;;;26.67;20.10;;;;;20.20;102960.00;;;;2085186;28;20208;-65
2022/01/13 02:20:17;;;;;;;28.20;20.70;;;;;20.30;102967.00;;;;2087407;28;20193;-65
2022/01/13 02:21:19;;;;;;;25.33;21.13;;;;;20.30;102961.00;;;;2083206;28;20216;-65
2022/01/13 02:22:19;;;;;;;24.98;20.02;;;;;20.20;102957.00;;;;2086326;28;20335;-65
2022/01/13 02:23:39;;;;;;;25.13;20.60;;;;;20.20;102956.00;;;;2086622;28;20236;-65
2022/01/13 02:24:39;;;;;;;26.17;20.83;;;;;20.20;102932.00;;;;2084117;28;20459;-65
2022/01/13 02:25:39;;;;;;;25.90;20.57;;;;;20.20;102961.00;;;;2086153;28;20220;-65
2022/01/13 02:26:40;;;;;;;24.80;21.10;;;;;20.10;102957.00;;;;2086528;28;20220;-65
2022/01/13 02:27:41;;;;;;;27.03;21.30;;;;;20.10;102951.00;;;;2087172;28;20224;-65
2022/01/13 02:28:43;;;;;;;24.40;19.98;;;;;20.10;102955.00;;;;2087524;28;20209;-65
2022/01/13 02:29:43;;;;;;;26.52;20.83;;;;;20.10;102948.00;;;;2087007;28;20684;-65
2022/01/13 02:30:44;;;;;;;27.93;21.30;;;;;20.10;102962.00;;;;2087182;28;20295;-65
2022/01/13 02:31:44;;;;;;;27.92;22.30;;;;;20.10;102951.00;;;;2087352;28;20216;-65
2022/01/13 02:32:45;;;;;;;26.80;21.27;;;;;20.10;102961.00;;;;2087319;28;20216;-65
2022/01/13 02:33:45;;;;;;;23.70;20.10;;;;;20.10;102957.00;;;;2087767;28;20651;-65
2022/01/13 02:34:46;;;;;;;31.90;21.67;;;;;20.10;102961.00;;;;2087069;28;20314;-65
2022/01/13 02:35:46;;;;;;;23.73;21.00;;;;;20.10;102956.00;;;;2087604;28;20205;-65
2022/01/13 02:36:48;;;;;;;24.53;20.73;;;;;20.10;102955.00;;;;2087707;28;20266;-64
2022/01/13 02:37:49;;;;;;;24.15;20.55;;;;;20.10;102962.00;;;;2087027;28;20240;-65
2022/01/13 02:38:53;;;;;;;26.03;21.33;;;;;20.10;102956.00;;;;2085882;28;20715;-65
2022/01/13 02:39:54;;;;;;;26.02;21.20;;;;;20.00;102940.00;;;;2085065;28;20232;-65
2022/01/13 02:40:55;;;;;;;26.80;20.73;;;;;20.10;102933.00;;;;2087294;28;20223;-65
2022/01/13 02:41:56;;;;;;;26.95;22.13;;;;;20.10;102937.00;;;;2087589;28;20220;-65
2022/01/13 02:42:56;;;;;;;27.65;20.70;;;;;20.00;102938.00;;;;2086983;28;20209;-65
2022/01/13 02:43:58;;;;;;;24.57;20.33;;;;;20.00;102940.00;;;;2087034;28;20719;-65
2022/01/13 02:45:14;;;;;;;24.52;20.88;;;;;20.10;102944.00;;;;2082317;28;20216;-65
2022/01/13 02:46:53;;;;;;;25.98;20.63;;;;;20.10;102941.00;;;;2091901;28;20718;-65
2022/01/13 02:48:12;;;;;;;24.67;20.70;;;;;20.00;102932.00;;;;2083364;28;20220;-65
2022/01/13 02:49:13;;;;;;;25.77;21.10;;;;;20.00;102916.00;;;;2078586;28;20221;-65
2022/01/13 02:50:14;;;;;;;25.83;23.07;;;;;20.00;102927.00;;;;2082690;28;20258;-65
2022/01/13 02:51:14;;;;;;;25.80;21.20;;;;;20.00;102933.00;;;;2070665;28;20899;-65
2022/01/13 02:52:15;;;;;;;26.60;22.13;;;;;20.00;102927.00;;;;2077875;28;20216;-65
2022/01/13 02:53:15;;;;;;;25.17;21.47;;;;;20.00;102932.00;;;;2084182;28;20217;-65
2022/01/13 02:54:15;;;;;;;22.30;19.90;;;;;20.00;102932.00;;;;2085755;28;20235;-66
2022/01/13 02:55:15;;;;;;;25.40;20.40;;;;;20.00;102934.00;;;;2087615;28;20381;-65
2022/01/13 02:56:16;;;;;;;27.30;21.80;;;;;20.00;102937.00;;;;2086689;28;20213;-65
2022/01/13 02:57:16;;;;;;;25.57;21.23;;;;;19.90;102928.00;;;;2086155;28;20223;-65
2022/01/13 02:58:16;;;;;;;24.73;20.87;;;;;20.00;102919.00;;;;2087586;28;20830;-65
2022/01/13 02:59:17;;;;;;;25.77;21.60;;;;;20.00;102925.00;;;;2079576;28;20703;-65
2022/01/13 03:00:17;;;;;;;26.10;21.03;;;;;20.00;102935.00;;;;2092558;28;20816;-65
2022/01/13 03:01:18;;;;;;;26.40;22.33;;;;;20.00;102936.00;;;;2091758;28;20212;-65
2022/01/13 03:02:18;;;;;;;23.47;20.97;;;;;20.00;102931.00;;;;2088286;28;20223;-65
2022/01/13 03:03:19;;;;;;;28.13;23.57;;;;;20.00;102889.00;;;;2088560;28;20584;-65
2022/01/13 03:04:21;;;;;;;24.37;20.30;;;;;20.00;102939.00;;;;2087910;28;20579;-65
2022/01/13 03:05:22;;;;;;;26.38;21.17;;;;;19.90;102926.00;;;;2087588;28;20470;-65
2022/01/13 03:06:31;;;;;;;25.30;21.70;;;;;19.90;102932.00;;;;2088117;28;20484;-65
2022/01/13 03:07:34;;;;;;;24.70;21.25;;;;;19.90;102929.00;;;;2088731;28;20224;-65
2022/01/13 03:08:35;;;;;;;25.77;22.98;;;;;19.90;102927.00;;;;2088838;28;20212;-65
2022/01/13 03:09:35;;;;;;;25.58;22.13;;;;;19.90;102928.00;;;;2087972;28;20627;-65
2022/01/13 03:10:36;;;;;;;24.00;21.40;;;;;19.90;102934.00;;;;2088251;28;20216;-66
2022/01/13 03:11:37;;;;;;;27.80;22.83;;;;;19.90;102922.00;;;;2088403;28;20213;-65
2022/01/13 03:12:41;;;;;;;26.15;22.80;;;;;19.90;102925.00;;;;2088314;28;20224;-65
2022/01/13 03:13:42;;;;;;;25.92;23.10;;;;;19.90;102921.00;;;;2087792;28;20664;-65
2022/01/13 03:14:42;;;;;;;25.30;22.47;;;;;19.90;102925.00;;;;2086237;28;20213;-65
2022/01/13 03:15:42;;;;;;;25.17;21.43;;;;;19.80;102923.00;;;;2088669;28;20205;-65
2022/01/13 03:16:44;;;;;;;27.20;23.50;;;;;19.90;102924.00;;;;2088211;28;20270;-65
2022/01/13 03:17:44;;;;;;;26.77;22.17;;;;;19.90;102924.00;;;;2089054;28;20209;-65
2022/01/13 03:18:45;;;;;;;27.13;22.20;;;;;19.90;102931.00;;;;2088893;28;20771;-65
2022/01/13 03:19:45;;;;;;;26.70;22.67;;;;;19.90;102923.00;;;;2088936;28;20213;-65
2022/01/13 03:20:46;;;;;;;24.23;21.60;;;;;19.90;102921.00;;;;2088687;28;20627;-65
2022/01/13 03:21:46;;;;;;;25.23;22.43;;;;;19.80;102918.00;;;;2089128;28;20616;-65
2022/01/13 03:22:46;;;;;;;27.60;22.17;;;;;19.80;102916.00;;;;2089005;28;20702;-65
2022/01/13 03:23:47;;;;;;;25.87;22.00;;;;;19.80;102926.00;;;;2088802;28;20716;-65
2022/01/13 03:24:47;;;;;;;26.40;21.90;;;;;19.80;102927.00;;;;2085424;28;20627;-65
2022/01/13 03:25:48;;;;;;;24.63;21.93;;;;;19.90;102922.00;;;;2088533;28;20723;-65
2022/01/13 03:26:49;;;;;;;26.20;22.73;;;;;19.80;102923.00;;;;2088226;28;20225;-65
2022/01/13 03:27:57;;;;;;;26.02;22.00;;;;;19.80;102919.00;;;;2088383;28;20209;-65
2022/01/13 03:30:13;;;;;;;26.42;21.55;;;;;19.80;102925.00;;;;2081020;28;20342;-65
2022/01/13 03:31:13;;;;;;;26.40;22.20;;;;;19.80;102908.00;;;;2082529;28;20298;-65
2022/01/13 03:32:14;;;;;;;27.87;22.63;;;;;19.80;102927.00;;;;2096505;28;20218;-65
2022/01/13 03:33:14;;;;;;;28.15;23.50;;;;;19.80;102925.00;;;;2092807;28;20209;-65
2022/01/13 03:34:16;;;;;;;29.27;22.43;;;;;19.80;102909.00;;;;2088814;28;20266;-65
2022/01/13 03:35:17;;;;;;;28.10;24.05;;;;;19.80;102926.00;;;;2087207;28;20215;-66
2022/01/13 03:36:17;;;;;;;25.73;22.97;;;;;19.80;102921.00;;;;2088362;28;20220;-65
2022/01/13 03:37:17;;;;;;;25.27;22.57;;;;;19.80;102921.00;;;;2088788;28;20228;-65
2022/01/13 03:38:18;;;;;;;27.27;23.13;;;;;19.80;102925.00;;;;2088910;28;20676;-65
2022/01/13 03:39:18;;;;;;;26.97;22.97;;;;;19.80;102918.00;;;;2085639;28;20695;-65
2022/01/13 03:40:19;;;;;;;24.40;21.87;;;;;19.80;102928.00;;;;2079300;28;20687;-65
2022/01/13 03:41:20;;;;;;;26.20;23.17;;;;;19.80;102935.00;;;;2088375;28;20217;-65
2022/01/13 03:42:20;;;;;;;29.15;23.92;;;;;19.80;102931.00;;;;2088133;28;20295;-65
2022/01/13 03:43:20;;;;;;;26.00;22.73;;;;;19.80;102924.00;;;;2088234;28;20255;-65
2022/01/13 03:44:27;;;;;;;27.83;23.10;;;;;19.70;102900.00;;;;2087420;28;20216;-65
2022/01/13 03:45:28;;;;;;;26.42;23.05;;;;;19.70;102927.00;;;;2088123;28;20221;-65
2022/01/13 03:46:29;;;;;;;28.13;25.02;;;;;19.80;102927.00;;;;2088985;28;20274;-64
2022/01/13 03:47:29;;;;;;;25.63;22.93;;;;;19.80;102925.00;;;;2089026;28;20254;-65
2022/01/13 03:48:29;;;;;;;27.13;24.20;;;;;19.70;102932.00;;;;2088934;28;20212;-65
2022/01/13 03:49:30;;;;;;;27.50;23.80;;;;;19.80;102929.00;;;;2086499;28;20303;-65
2022/01/13 03:50:31;;;;;;;26.57;22.53;;;;;19.80;102937.00;;;;2087377;28;20209;-65
2022/01/13 03:51:59;;;;;;;26.27;21.73;;;;;19.80;102929.00;;;;2088107;28;20502;-65
2022/01/13 03:53:02;;;;;;;26.58;22.67;;;;;19.70;102930.00;;;;2087007;28;20630;-65
2022/01/13 03:54:03;;;;;;;26.83;23.15;;;;;19.70;102935.00;;;;2088445;28;20875;-65
2022/01/13 03:55:34;;;;;;;28.10;23.50;;;;;19.70;102934.00;;;;2085345;28;20255;-65
2022/01/13 03:57:05;;;;;;;25.90;21.70;;;;;19.70;102933.00;;;;2086977;28;20668;-65
2022/01/13 03:58:30;;;;;;;29.15;23.70;;;;;19.70;102935.00;;;;2084619;28;20600;-65
2022/01/13 03:59:54;;;;;;;26.45;22.60;;;;;19.70;102935.00;;;;2082815;28;20703;-65
2022/01/13 04:01:28;;;;;;;26.08;23.25;;;;;19.70;102938.00;;;;2085157;28;20224;-65
2022/01/13 04:02:28;;;;;;;25.63;22.77;;;;;19.70;102941.00;;;;2087483;28;20208;-65
2022/01/13 04:03:29;;;;;;;26.47;22.50;;;;;19.70;102932.00;;;;2084024;28;20244;-64
2022/01/13 04:04:34;;;;;;;24.77;22.07;;;;;19.70;102926.00;;;;2088349;28;20641;-65
2022/01/13 04:05:58;;;;;;;26.92;22.70;;;;;19.70;102925.00;;;;2088202;28;20215;-65
2022/01/13 04:07:07;;;;;;;28.52;24.20;;;;;19.60;102922.00;;;;2086936;28;20308;-65
2022/01/13 04:08:07;;;;;;;25.75;22.92;;;;;19.60;102916.00;;;;2080596;28;20302;-65
2022/01/13 04:09:39;;;;;;;26.33;23.17;;;;;19.70;102914.00;;;;2086975;28;20716;-65
2022/01/13 04:10:46;;;;;;;25.25;22.55;;;;;19.70;102915.00;;;;2086666;28;20351;-65
2022/01/13 04:11:46;;;;;;;25.65;22.95;;;;;19.60;102910.00;;;;2088815;28;20269;-65
2022/01/13 04:12:46;;;;;;;26.90;24.00;;;;;19.60;102909.00;;;;2088693;28;21067;-65
2022/01/13 04:14:49;;;;;;;25.27;22.57;;;;;19.60;102905.00;;;;2087491;28;20255;-65
2022/01/13 04:15:50;;;;;;;29.55;23.60;;;;;19.60;102899.00;;;;2070977;28;20229;-65
2022/01/13 04:16:50;;;;;;;27.27;24.37;;;;;19.60;102900.00;;;;2072254;28;20241;-65
2022/01/13 04:17:51;;;;;;;27.47;23.03;;;;;19.60;102898.00;;;;2088578;28;20718;-65
2022/01/13 04:18:53;;;;;;;26.23;22.67;;;;;19.60;102895.00;;;;2088619;28;20700;-65
2022/01/13 04:19:53;;;;;;;28.17;24.60;;;;;19.70;102905.00;;;;2088481;28;20696;-65
2022/01/13 04:20:53;;;;;;;26.57;23.77;;;;;19.70;102901.00;;;;2088261;28;20252;-65
2022/01/13 04:21:54;;;;;;;26.63;23.70;;;;;19.60;102883.00;;;;2088628;28;20240;-64
2022/01/13 04:22:54;;;;;;;26.73;22.47;;;;;19.60;102887.00;;;;2079659;28;20228;-65
2022/01/13 04:23:56;;;;;;;28.40;24.57;;;;;19.60;102895.00;;;;2079594;28;20276;-64
2022/01/13 04:24:57;;;;;;;25.92;23.20;;;;;19.60;102897.00;;;;2087129;28;20224;-65
2022/01/13 04:25:57;;;;;;;27.77;24.20;;;;;19.60;102901.00;;;;2087041;28;20221;-65
2022/01/13 04:26:58;;;;;;;29.57;23.90;;;;;19.60;102903.00;;;;2087493;28;20607;-65
2022/01/13 04:28:02;;;;;;;28.87;23.90;;;;;19.60;102900.00;;;;2088596;28;20215;-65
2022/01/13 04:29:18;;;;;;;25.65;22.70;;;;;19.60;102905.00;;;;2087849;28;20710;-65
2022/01/13 04:31:18;;;;;;;26.63;23.03;;;;;19.60;102887.00;;;;2088232;28;20236;-65
2022/01/13 04:32:19;;;;;;;25.43;22.70;;;;;19.60;102899.00;;;;2088636;28;20255;-65
2022/01/13 04:33:19;;;;;;;25.63;22.93;;;;;19.60;102889.00;;;;2088608;28;20217;-65
2022/01/13 04:34:19;;;;;;;24.60;21.73;;;;;19.60;102898.00;;;;2089327;28;20216;-64
2022/01/13 04:35:20;;;;;;;27.93;23.50;;;;;19.60;102904.00;;;;2087578;28;20213;-64
2022/01/13 04:36:21;;;;;;;27.80;24.07;;;;;19.60;102903.00;;;;2087550;28;20213;-65
2022/01/13 04:37:21;;;;;;;24.17;21.57;;;;;19.60;102906.00;;;;2087783;28;20978;-65
2022/01/13 04:38:21;;;;;;;26.07;23.37;;;;;19.60;102899.00;;;;2088443;28;20215;-64
2022/01/13 04:39:22;;;;;;;28.97;23.23;;;;;19.60;102895.00;;;;2088527;28;20217;-65
2022/01/13 04:40:22;;;;;;;27.30;23.83;;;;;19.60;102887.00;;;;2085575;28;20680;-65
2022/01/13 04:41:30;;;;;;;27.20;23.50;;;;;19.50;102857.00;;;;2088314;28;20270;-64
2022/01/13 04:42:35;;;;;;;24.95;21.65;;;;;19.60;102897.00;;;;2077832;28;20205;-65
2022/01/13 04:43:35;;;;;;;24.25;21.75;;;;;19.60;102898.00;;;;2087943;28;20213;-65
2022/01/13 04:44:36;;;;;;;26.30;22.47;;;;;19.70;102899.00;;;;2088344;28;20209;-68
2022/01/13 04:45:36;;;;;;;26.13;22.97;;;;;19.70;102896.00;;;;2086949;28;20270;-66
2022/01/13 04:46:37;;;;;;;24.10;21.20;;;;;19.80;102889.00;;;;2086906;28;20267;-65
2022/01/13 04:47:37;;;;;;;27.10;22.93;;;;;19.70;102884.00;;;;2087870;28;20220;-66
2022/01/13 04:48:37;;;;;;;23.43;21.03;;;;;19.70;102890.00;;;;2079031;28;20238;-65
2022/01/13 04:49:38;;;;;;;23.33;21.03;;;;;19.80;102900.00;;;;2070921;28;20861;-64
2022/01/13 04:50:38;;;;;;;25.30;21.33;;;;;19.80;102888.00;;;;2087481;28;20700;-64
2022/01/13 04:51:39;;;;;;;23.60;20.93;;;;;19.80;102887.00;;;;2088376;28;20672;-64
2022/01/13 04:52:39;;;;;;;23.90;20.70;;;;;19.80;102887.00;;;;2088317;28;20275;-64
2022/01/13 04:53:39;;;;;;;26.40;21.63;;;;;19.80;102880.00;;;;2088244;28;20205;-64
2022/01/13 04:54:40;;;;;;;23.30;20.40;;;;;19.90;102879.00;;;;2087087;28;20197;-64
2022/01/13 04:55:49;;;;;;;22.20;19.80;;;;;19.90;102885.00;;;;2087710;28;20216;-65
2022/01/13 04:57:49;;;;;;;23.80;21.30;;;;;19.90;102882.00;;;;2087806;28;20742;-65
2022/01/13 04:58:50;;;;;;;21.97;19.57;;;;;19.80;102879.00;;;;2087607;28;20720;-65
2022/01/13 04:59:50;;;;;;;24.23;21.67;;;;;19.90;102882.00;;;;2087321;28;20704;-65
2022/01/13 05:00:50;;;;;;;23.77;19.50;;;;;19.90;102880.00;;;;2084879;28;20708;-65
2022/01/13 05:01:51;;;;;;;22.40;20.10;;;;;19.90;102873.00;;;;2087258;28;20300;-65
2022/01/13 05:02:51;;;;;;;24.07;21.57;;;;;19.80;102860.00;;;;2087080;28;20704;-65
2022/01/13 05:03:51;;;;;;;25.50;21.47;;;;;19.80;102871.00;;;;2087742;28;20228;-65
2022/01/13 05:04:52;;;;;;;24.47;21.53;;;;;19.90;102872.00;;;;2087515;28;20708;-64
2022/01/13 05:05:52;;;;;;;25.60;21.40;;;;;19.80;102867.00;;;;2087787;28;20220;-65
2022/01/13 05:06:52;;;;;;;24.00;20.67;;;;;19.90;102870.00;;;;2087486;28;20304;-65
2022/01/13 05:07:53;;;;;;;22.27;19.97;;;;;19.90;102840.00;;;;2087509;28;20676;-65
2022/01/13 05:08:53;;;;;;;23.50;20.70;;;;;19.90;102868.00;;;;2087713;28;22426;-64
2022/01/13 05:09:53;;;;;;;25.37;22.13;;;;;19.80;102863.00;;;;2085096;28;20221;-64
2022/01/13 05:10:54;;;;;;;24.03;20.90;;;;;19.90;102859.00;;;;2087446;28;20757;-65
2022/01/13 05:11:54;;;;;;;22.77;20.37;;;;;19.80;102863.00;;;;2087700;28;20217;-65
2022/01/13 05:12:56;;;;;;;24.73;21.67;;;;;19.80;102865.00;;;;2088033;28;20240;-65
2022/01/13 05:13:57;;;;;;;23.30;20.90;;;;;19.80;102873.00;;;;2088148;28;20217;-65
2022/01/13 05:15:01;;;;;;;22.33;19.97;;;;;19.80;102880.00;;;;2087742;28;20220;-65
2022/01/13 05:16:01;;;;;;;23.40;20.88;;;;;19.80;102870.00;;;;2084524;28;20231;-65
2022/01/13 05:17:22;;;;;;;23.60;21.13;;;;;19.80;102874.00;;;;2097118;28;20216;-64
2022/01/13 05:18:43;;;;;;;22.42;20.00;;;;;19.80;102883.00;;;;2092420;28;20208;-63
2022/01/13 05:19:58;;;;;;;24.58;21.52;;;;;19.80;102868.00;;;;2090396;28;20220;-63